createdAt,value
2018-12-10T00:01:20.592Z,18.90
2018-12-10T00:03:48.081Z,18.63
2018-12-10T00:06:15.659Z,18.30
2018-12-10T00:08:43.187Z,17.73
2018-12-10T00:11:10.677Z,17.60
2018-12-10T00:13:38.199Z,17.90
2018-12-10T00:16:05.751Z,18.17
2018-12-10T00:18:33.256Z,17.20
2018-12-10T00:21:00.761Z,18.47
2018-12-10T00:23:28.279Z,17.27
2018-12-10T00:25:55.988Z,18.63
2018-12-10T00:28:23.496Z,17.00
2018-12-10T00:30:50.993Z,17.03
2018-12-10T00:33:18.508Z,17.87
2018-12-10T00:35:46.013Z,17.27
2018-12-10T00:38:13.521Z,17.33
2018-12-10T00:40:41.025Z,17.10
2018-12-10T00:43:08.511Z,17.80
2018-12-10T00:45:36.015Z,17.57
2018-12-10T00:48:03.567Z,17.60
2018-12-10T00:50:32.035Z,17.07
2018-12-10T00:52:59.541Z,17.13
2018-12-10T00:55:27.050Z,17.30
2018-12-10T00:57:55.123Z,17.13
2018-12-10T01:00:22.823Z,16.70
2018-12-10T01:02:50.341Z,16.93
2018-12-10T01:05:17.864Z,16.80
2018-12-10T01:07:45.352Z,16.17
2018-12-10T01:10:12.936Z,16.53
2018-12-10T01:12:40.551Z,16.33
2018-12-10T01:15:08.136Z,16.60
2018-12-10T01:17:35.640Z,17.03
2018-12-10T01:20:03.218Z,17.20
2018-12-10T01:22:30.705Z,16.53
2018-12-10T01:24:58.268Z,15.77
2018-12-10T01:27:25.771Z,16.40
2018-12-10T01:29:53.396Z,15.77
2018-12-10T01:32:21.048Z,16.33
2018-12-10T01:34:48.552Z,15.90
2018-12-10T01:37:16.060Z,15.57
2018-12-10T01:39:43.547Z,15.93
2018-12-10T01:42:11.056Z,15.90
2018-12-10T01:44:38.543Z,16.27
2018-12-10T01:47:06.046Z,15.53
2018-12-10T01:49:33.527Z,15.07
2018-12-10T01:52:01.076Z,15.73
2018-12-10T01:54:28.630Z,15.43
2018-12-10T01:56:56.130Z,16.10
2018-12-10T01:59:23.626Z,15.33
2018-12-10T02:01:51.127Z,15.10
2018-12-10T02:04:18.610Z,15.10
2018-12-10T02:06:46.118Z,15.70
2018-12-10T02:09:13.594Z,15.40
2018-12-10T02:11:41.131Z,15.00
2018-12-10T02:14:08.606Z,14.80
2018-12-10T02:16:36.114Z,15.33
2018-12-10T02:19:03.620Z,15.50
2018-12-10T02:21:31.119Z,15.53
2018-12-10T02:23:58.607Z,15.27
2018-12-10T02:26:26.112Z,14.40
2018-12-10T02:28:59.263Z,15.13
2018-12-10T02:31:26.768Z,14.87
2018-12-10T02:33:54.264Z,15.07
2018-12-10T02:36:21.827Z,14.37
2018-12-10T02:38:49.306Z,14.90
2018-12-10T02:41:16.808Z,14.50
2018-12-10T02:43:44.292Z,14.73
2018-12-10T02:46:11.862Z,14.67
2018-12-10T02:48:39.342Z,13.77
2018-12-10T02:51:06.846Z,14.67
2018-12-10T02:53:34.328Z,13.60
2018-12-10T02:56:01.828Z,14.27
2018-12-10T02:58:29.418Z,13.87
2018-12-10T03:00:57.033Z,13.70
2018-12-10T03:03:24.589Z,14.03
2018-12-10T03:05:52.087Z,14.47
2018-12-10T03:08:19.597Z,13.30
2018-12-10T03:10:47.075Z,13.97
2018-12-10T03:13:14.613Z,13.83
2018-12-10T03:15:42.097Z,14.00
2018-12-10T03:18:09.605Z,13.77
2018-12-10T03:20:37.091Z,12.77
2018-12-10T03:23:04.592Z,12.87
2018-12-10T03:25:32.086Z,13.93
2018-12-10T03:27:59.588Z,12.47
2018-12-10T03:30:27.080Z,13.40
2018-12-10T03:32:54.598Z,13.70
2018-12-10T03:35:22.244Z,13.23
2018-12-10T03:37:49.804Z,13.30
2018-12-10T03:40:17.291Z,12.90
2018-12-10T03:42:44.879Z,12.20
2018-12-10T03:45:12.359Z,12.80
2018-12-10T03:47:39.952Z,12.20
2018-12-10T03:50:07.539Z,12.27
2018-12-10T03:52:35.047Z,12.87
2018-12-10T03:55:02.527Z,13.33
2018-12-10T03:57:30.026Z,13.03
2018-12-10T03:59:57.511Z,12.47
2018-12-10T04:02:25.015Z,12.80
2018-12-10T04:04:52.495Z,12.50
2018-12-10T04:07:19.993Z,11.67
2018-12-10T04:09:47.486Z,12.83
2018-12-10T04:12:15.011Z,12.13
2018-12-10T04:14:42.489Z,12.50
2018-12-10T04:17:10.171Z,12.80
2018-12-10T04:19:37.663Z,11.87
2018-12-10T04:22:05.166Z,12.63
2018-12-10T04:24:32.647Z,12.17
2018-12-10T04:27:00.159Z,12.37
2018-12-10T04:29:27.635Z,12.63
2018-12-10T04:31:55.134Z,11.67
2018-12-10T04:34:22.678Z,11.47
2018-12-10T04:36:50.428Z,11.60
2018-12-10T04:39:17.907Z,11.33
2018-12-10T04:41:45.391Z,11.50
2018-12-10T04:44:12.893Z,12.10
2018-12-10T04:46:40.374Z,11.67
2018-12-10T04:49:07.881Z,11.63
2018-12-10T04:51:35.362Z,11.30
2018-12-10T04:54:02.863Z,11.40
2018-12-10T04:56:30.347Z,11.80
2018-12-10T04:58:57.846Z,11.33
2018-12-10T05:01:25.390Z,11.53
2018-12-10T05:03:53.154Z,11.90
2018-12-10T05:06:20.637Z,10.90
2018-12-10T05:08:48.148Z,11.43
2018-12-10T05:11:15.631Z,10.90
2018-12-10T05:13:43.163Z,10.97
2018-12-10T05:16:10.646Z,10.73
2018-12-10T05:18:38.142Z,10.50
2018-12-10T05:21:05.623Z,11.03
2018-12-10T05:23:33.131Z,11.10
2018-12-10T05:26:00.635Z,10.87
2018-12-10T05:28:28.144Z,10.63
2018-12-10T05:30:55.627Z,11.37
2018-12-10T05:33:23.139Z,10.83
2018-12-10T05:35:50.619Z,10.77
2018-12-10T05:38:18.123Z,10.30
2018-12-10T05:40:45.607Z,11.10
2018-12-10T05:43:13.183Z,10.63
2018-12-10T05:45:40.663Z,10.33
2018-12-10T05:48:08.171Z,10.63
2018-12-10T05:50:35.651Z,10.87
2018-12-10T05:53:03.150Z,10.80
2018-12-10T05:55:30.631Z,9.83
2018-12-10T05:57:58.131Z,10.50
2018-12-10T06:00:25.619Z,10.40
2018-12-10T06:02:53.117Z,10.07
2018-12-10T06:05:20.595Z,9.93
2018-12-10T06:07:48.094Z,10.20
2018-12-10T06:10:15.580Z,9.73
2018-12-10T06:12:43.062Z,9.93
2018-12-10T06:15:10.639Z,9.53
2018-12-10T06:17:38.119Z,10.20
2018-12-10T06:20:05.957Z,9.60
2018-12-10T06:22:33.458Z,9.40
2018-12-10T06:25:00.959Z,9.57
2018-12-10T06:27:28.438Z,9.90
2018-12-10T06:29:55.939Z,9.30
2018-12-10T06:32:23.462Z,9.73
2018-12-10T06:34:50.976Z,9.20
2018-12-10T06:37:19.431Z,8.77
2018-12-10T06:39:46.928Z,9.73
2018-12-10T06:42:14.407Z,9.40
2018-12-10T06:44:41.907Z,8.93
2018-12-10T06:47:09.387Z,9.67
2018-12-10T06:49:36.883Z,9.40
2018-12-10T06:52:04.383Z,9.03
2018-12-10T06:54:31.891Z,9.50
2018-12-10T06:56:59.375Z,9.40
2018-12-10T06:59:26.877Z,9.73
2018-12-10T07:01:54.618Z,9.10
2018-12-10T07:04:22.110Z,9.53
2018-12-10T07:06:49.587Z,9.10
2018-12-10T07:09:17.074Z,8.90
2018-12-10T07:11:44.552Z,9.07
2018-12-10T07:14:12.043Z,8.80
2018-12-10T07:16:39.519Z,9.40
2018-12-10T07:19:07.011Z,9.10
2018-12-10T07:21:34.482Z,9.30
2018-12-10T07:24:01.974Z,8.80
2018-12-10T07:26:29.447Z,8.73
2018-12-10T07:28:56.943Z,8.73
2018-12-10T07:31:24.414Z,9.07
2018-12-10T07:33:51.916Z,9.00
2018-12-10T07:36:19.387Z,9.13
2018-12-10T07:38:46.894Z,8.60
2018-12-10T07:41:14.366Z,9.27
2018-12-10T07:43:41.847Z,9.23
2018-12-10T07:46:09.343Z,8.73
2018-12-10T07:48:36.816Z,8.90
2018-12-10T07:51:04.315Z,8.87
2018-12-10T07:53:31.787Z,8.07
2018-12-10T07:55:59.287Z,8.10
2018-12-10T07:58:26.762Z,8.50
2018-12-10T08:00:54.255Z,9.80
2018-12-10T08:03:21.742Z,8.80
2018-12-10T08:05:49.234Z,8.20
2018-12-10T08:08:16.707Z,8.17
2018-12-10T08:10:44.208Z,8.33
2018-12-10T08:13:11.691Z,9.30
2018-12-10T08:15:39.213Z,8.77
2018-12-10T08:18:06.864Z,9.23
2018-12-10T08:20:34.358Z,9.13
2018-12-10T08:23:01.830Z,8.73
2018-12-10T08:25:29.336Z,9.30
2018-12-10T08:27:56.820Z,8.57
2018-12-10T08:30:24.328Z,8.37
2018-12-10T08:32:51.824Z,8.40
2018-12-10T08:35:19.316Z,8.37
2018-12-10T08:37:46.795Z,8.10
2018-12-10T08:40:14.300Z,8.73
2018-12-10T08:42:46.438Z,8.57
2018-12-10T08:45:13.955Z,8.13
2018-12-10T08:47:41.427Z,8.30
2018-12-10T08:50:08.995Z,9.40
2018-12-10T08:52:36.756Z,8.60
2018-12-10T08:55:04.383Z,7.97
2018-12-10T08:57:31.854Z,8.23
2018-12-10T08:59:59.346Z,8.13
2018-12-10T09:02:26.899Z,8.43
2018-12-10T09:04:54.391Z,8.20
2018-12-10T09:07:21.862Z,7.80
2018-12-10T09:09:49.357Z,7.90
2018-12-10T09:12:16.826Z,8.03
2018-12-10T09:14:44.327Z,8.13
2018-12-10T09:17:11.804Z,8.40
2018-12-10T09:19:39.278Z,8.13
2018-12-10T09:22:06.815Z,8.00
2018-12-10T09:24:34.295Z,7.87
2018-12-10T09:27:01.799Z,7.90
2018-12-10T09:29:29.295Z,7.90
2018-12-10T09:31:56.959Z,8.27
2018-12-10T09:34:24.435Z,7.73
2018-12-10T09:36:51.935Z,7.33
2018-12-10T09:39:19.415Z,6.97
2018-12-10T09:41:47.007Z,7.90
2018-12-10T09:44:14.827Z,7.47
2018-12-10T09:46:42.491Z,7.90
2018-12-10T09:49:10.071Z,7.80
2018-12-10T09:51:37.563Z,7.80
2018-12-10T09:54:05.044Z,7.00
2018-12-10T09:56:32.555Z,7.20
2018-12-10T09:59:00.030Z,7.27
2018-12-10T10:01:27.591Z,7.63
2018-12-10T10:03:55.066Z,7.37
2018-12-10T10:06:22.562Z,7.43
2018-12-10T10:08:50.088Z,7.60
2018-12-10T10:11:17.655Z,7.20
2018-12-10T10:13:45.147Z,6.90
2018-12-10T10:16:12.639Z,7.03
2018-12-10T10:18:40.114Z,7.20
2018-12-10T10:21:11.378Z,7.20
2018-12-10T10:23:37.117Z,6.97
2018-12-10T10:26:04.606Z,6.70
2018-12-10T10:28:32.083Z,6.90
2018-12-10T10:30:59.577Z,7.27
2018-12-10T10:33:32.264Z,7.20
2018-12-10T10:35:56.567Z,6.73
2018-12-10T10:38:24.042Z,7.37
2018-12-10T10:40:51.535Z,7.37
2018-12-10T10:43:19.018Z,6.70
2018-12-10T10:45:46.510Z,7.30
2018-12-10T10:48:13.987Z,7.00
2018-12-10T10:50:41.459Z,6.77
2018-12-10T10:53:09.064Z,6.90
2018-12-10T10:55:36.659Z,6.83
2018-12-10T10:58:04.150Z,6.60
2018-12-10T11:00:37.276Z,6.60
2018-12-10T11:03:06.731Z,7.10
2018-12-10T11:05:34.222Z,6.90
2018-12-10T11:08:01.783Z,7.17
2018-12-10T11:10:29.255Z,6.50
2018-12-10T11:12:56.747Z,5.87
2018-12-10T11:15:24.286Z,6.60
2018-12-10T11:17:51.782Z,6.70
2018-12-10T11:20:19.329Z,7.07
2018-12-10T11:22:46.829Z,6.40
2018-12-10T11:25:14.302Z,6.63
2018-12-10T11:27:41.802Z,7.00
2018-12-10T11:30:09.338Z,6.63
2018-12-10T11:32:36.834Z,6.50
2018-12-10T11:35:04.460Z,6.20
2018-12-10T11:37:31.959Z,6.63
2018-12-10T11:39:59.431Z,6.27
2018-12-10T11:42:26.929Z,6.07
2018-12-10T11:44:54.402Z,6.53
2018-12-10T11:47:21.891Z,6.30
2018-12-10T11:52:25.547Z,6.67
2018-12-10T11:54:53.023Z,6.60
2018-12-10T11:57:20.577Z,6.33
2018-12-10T11:59:48.050Z,6.43
2018-12-10T12:02:15.538Z,6.07
2018-12-10T12:04:43.021Z,6.43
2018-12-10T12:07:10.630Z,6.33
2018-12-10T12:09:38.106Z,6.07
2018-12-10T12:12:05.604Z,6.37
2018-12-10T12:14:33.079Z,6.30
2018-12-10T12:17:00.567Z,5.83
2018-12-10T12:19:28.059Z,6.13
2018-12-10T12:21:55.551Z,5.83
2018-12-10T12:24:23.018Z,6.10
2018-12-10T12:26:50.712Z,6.30
2018-12-10T12:29:18.190Z,5.80
2018-12-10T12:31:45.662Z,5.90
2018-12-10T12:34:13.154Z,5.93
2018-12-10T12:36:40.631Z,5.60
2018-12-10T12:39:08.151Z,5.73
2018-12-10T12:41:35.620Z,6.13
2018-12-10T12:44:03.122Z,5.70
2018-12-10T12:46:30.590Z,6.03
2018-12-10T12:48:58.087Z,5.67
2018-12-10T12:51:25.568Z,6.00
2018-12-10T12:53:53.203Z,5.90
2018-12-10T12:56:20.674Z,5.80
2018-12-10T12:58:48.171Z,5.87
2018-12-10T13:01:15.645Z,5.47
2018-12-10T13:03:43.146Z,5.90
2018-12-10T13:06:10.623Z,5.70
2018-12-10T13:08:38.135Z,5.20
2018-12-10T13:11:05.608Z,6.00
2018-12-10T13:13:33.103Z,5.53
2018-12-10T13:16:00.591Z,5.63
2018-12-10T13:18:28.092Z,5.47
2018-12-10T13:20:55.568Z,5.73
2018-12-10T13:23:23.070Z,5.50
2018-12-10T13:25:50.673Z,5.30
2018-12-10T13:28:18.167Z,5.87
2018-12-10T13:30:45.643Z,5.30
2018-12-10T13:33:13.134Z,5.67
2018-12-10T13:35:40.613Z,5.50
2018-12-10T13:38:12.394Z,5.40
2018-12-10T13:40:37.615Z,5.43
2018-12-10T13:43:05.111Z,5.20
2018-12-10T13:45:32.587Z,5.50
2018-12-10T13:48:00.085Z,5.60
2018-12-10T13:50:27.560Z,5.30
2018-12-10T13:52:55.055Z,5.20
2018-12-10T13:55:22.531Z,5.40
2018-12-10T13:57:50.031Z,5.00
2018-12-10T14:00:17.520Z,5.23
2018-12-10T14:02:45.091Z,5.30
2018-12-10T14:05:12.930Z,5.40
2018-12-10T14:07:40.404Z,5.20
2018-12-10T14:10:07.898Z,5.23
2018-12-10T14:12:35.374Z,5.30
2018-12-10T14:15:03.299Z,5.13
2018-12-10T14:17:30.832Z,4.87
2018-12-10T14:19:58.409Z,5.33
2018-12-10T14:22:25.946Z,5.50
2018-12-10T14:24:53.438Z,4.90
2018-12-10T14:27:20.986Z,5.20
2018-12-10T14:29:48.543Z,4.93
2018-12-10T14:32:16.219Z,5.33
2018-12-10T14:34:43.726Z,5.37
2018-12-10T14:37:11.207Z,5.20
2018-12-10T14:39:38.723Z,5.00
2018-12-10T14:42:10.130Z,4.80
2018-12-10T14:44:37.622Z,5.27
2018-12-10T14:47:05.094Z,5.27
2018-12-10T14:49:32.591Z,4.80
2018-12-10T14:52:00.063Z,5.43
2018-12-10T14:54:27.571Z,5.30
2018-12-10T14:56:55.042Z,5.03
2018-12-10T14:59:22.538Z,4.53
2018-12-10T15:01:50.022Z,5.30
2018-12-10T15:04:17.519Z,4.97
2018-12-10T15:06:44.995Z,5.13
2018-12-10T15:09:12.489Z,4.87
2018-12-10T15:11:39.976Z,4.90
2018-12-10T15:14:07.471Z,4.83
2018-12-10T15:16:34.947Z,4.63
2018-12-10T15:19:02.444Z,4.93
2018-12-10T15:21:29.924Z,4.73
2018-12-10T15:23:57.414Z,4.57
2018-12-10T15:26:24.963Z,4.87
2018-12-10T15:28:52.518Z,4.87
2018-12-10T15:31:19.990Z,4.80
2018-12-10T15:33:47.506Z,4.80
2018-12-10T15:36:14.983Z,4.93
2018-12-10T15:38:42.456Z,4.80
2018-12-10T15:41:10.110Z,5.00
2018-12-10T15:43:37.590Z,4.80
2018-12-10T15:46:05.090Z,4.80
2018-12-10T15:48:32.562Z,4.97
2018-12-10T15:51:00.059Z,4.70
2018-12-10T15:53:27.539Z,4.93
2018-12-10T15:55:55.034Z,4.73
2018-12-10T15:58:22.507Z,4.80
2018-12-10T16:00:49.993Z,4.73
2018-12-10T16:03:17.475Z,4.80
2018-12-10T16:05:44.973Z,4.83
2018-12-10T16:08:12.442Z,4.60
2018-12-10T16:10:39.946Z,5.10
2018-12-10T16:13:07.426Z,4.87
2018-12-10T16:15:34.979Z,4.60
2018-12-10T16:18:02.462Z,4.67
2018-12-10T16:20:29.959Z,4.70
2018-12-10T16:22:57.435Z,4.53
2018-12-10T16:25:24.932Z,4.77
2018-12-10T16:27:52.571Z,4.60
2018-12-10T16:30:20.336Z,4.67
2018-12-10T16:32:47.807Z,4.60
2018-12-10T16:35:15.364Z,4.90
2018-12-10T16:37:42.834Z,4.70
2018-12-10T16:40:10.335Z,4.97
2018-12-10T16:42:37.808Z,4.87
2018-12-10T16:45:06.638Z,4.53
2018-12-10T16:47:34.186Z,5.20
2018-12-10T16:50:01.682Z,4.60
2018-12-10T16:52:29.154Z,8.50
2018-12-10T16:54:56.648Z,5.57
2018-12-10T16:57:24.123Z,5.23
2018-12-10T16:59:51.614Z,5.40
2018-12-10T17:02:19.101Z,5.53
2018-12-10T17:04:46.594Z,5.43
2018-12-10T17:07:14.136Z,5.50
2018-12-10T17:09:42.002Z,5.30
2018-12-10T17:12:09.549Z,5.60
2018-12-10T17:14:37.194Z,5.57
2018-12-10T17:17:04.686Z,5.60
2018-12-10T17:19:32.839Z,6.00
2018-12-10T17:22:00.334Z,5.83
2018-12-10T17:24:27.810Z,5.80
2018-12-10T17:26:55.316Z,5.57
2018-12-10T17:29:22.791Z,5.67
2018-12-10T17:31:50.351Z,5.90
2018-12-10T17:34:17.826Z,5.77
2018-12-10T17:36:45.316Z,5.30
2018-12-10T17:39:12.783Z,5.70
2018-12-10T17:41:40.275Z,5.50
2018-12-10T17:44:07.744Z,5.50
2018-12-10T17:46:35.243Z,5.63
2018-12-10T17:49:02.715Z,5.50
2018-12-10T17:51:30.207Z,5.60
2018-12-10T17:53:58.043Z,5.77
2018-12-10T17:56:25.797Z,5.37
2018-12-10T17:58:53.270Z,5.63
2018-12-10T18:01:20.762Z,5.80
2018-12-10T18:03:48.248Z,6.20
2018-12-10T18:06:15.769Z,6.00
2018-12-10T18:08:43.316Z,5.57
2018-12-10T18:11:10.859Z,5.67
2018-12-10T18:13:38.338Z,5.80
2018-12-10T18:16:05.830Z,5.97
2018-12-10T18:18:33.315Z,6.00
2018-12-10T18:21:00.806Z,5.90
2018-12-10T18:23:28.346Z,5.90
2018-12-10T18:25:56.477Z,5.73
2018-12-10T18:28:23.998Z,5.40
2018-12-10T18:30:51.763Z,5.97
2018-12-10T18:33:19.256Z,5.90
2018-12-10T18:35:46.771Z,5.57
2018-12-10T18:38:14.310Z,5.57
2018-12-10T18:40:41.793Z,5.80
2018-12-10T18:43:09.294Z,5.87
2018-12-10T18:45:36.783Z,6.07
2018-12-10T18:48:04.284Z,5.73
2018-12-10T18:50:31.766Z,5.80
2018-12-10T18:52:59.292Z,5.50
2018-12-10T18:55:26.775Z,5.87
2018-12-10T18:57:54.363Z,5.70
2018-12-10T19:00:21.843Z,5.80
2018-12-10T19:02:49.338Z,5.93
2018-12-10T19:05:16.872Z,5.93
2018-12-10T19:07:44.364Z,6.00
2018-12-10T19:10:11.939Z,6.10
2018-12-10T19:12:39.705Z,6.00
2018-12-10T19:15:07.515Z,5.80
2018-12-10T19:17:35.018Z,6.27
2018-12-10T19:20:02.674Z,7.60
2018-12-10T19:22:30.197Z,6.20
2018-12-10T19:24:57.778Z,6.70
2018-12-10T19:27:25.266Z,6.50
2018-12-10T19:29:52.746Z,6.53
2018-12-10T19:32:20.240Z,6.03
2018-12-10T19:34:47.710Z,6.30
2018-12-10T19:37:15.209Z,6.90
2018-12-10T19:39:42.687Z,6.40
2018-12-10T19:42:10.287Z,6.60
2018-12-10T19:44:37.768Z,6.83
2018-12-10T19:47:05.261Z,6.60
2018-12-10T19:49:32.802Z,6.20
2018-12-10T19:52:00.302Z,6.70
2018-12-10T19:54:27.779Z,6.30
2018-12-10T19:56:55.266Z,6.80
2018-12-10T19:59:23.039Z,6.70
2018-12-10T20:01:50.756Z,6.73
2018-12-10T20:04:18.328Z,6.30
2018-12-10T20:06:51.498Z,6.60
2018-12-10T20:09:18.972Z,6.40
2018-12-10T20:11:46.524Z,6.43
2018-12-10T20:14:13.994Z,6.30
2018-12-10T20:16:41.481Z,6.33
2018-12-10T20:19:08.970Z,6.30
2018-12-10T20:21:36.442Z,6.60
2018-12-10T20:24:04.050Z,6.53
2018-12-10T20:26:31.615Z,6.73
2018-12-10T20:28:59.108Z,7.03
2018-12-10T20:31:26.592Z,6.90
2018-12-10T20:33:54.103Z,6.20
2018-12-10T20:36:21.584Z,6.70
2018-12-10T20:38:49.075Z,6.23
2018-12-10T20:41:16.554Z,6.03
2018-12-10T20:43:44.046Z,6.13
2018-12-10T20:46:11.524Z,6.40
2018-12-10T20:48:39.085Z,6.13
2018-12-10T20:51:06.555Z,5.87
2018-12-10T20:53:34.062Z,6.53
2018-12-10T20:56:01.544Z,6.43
2018-12-10T20:58:29.043Z,6.57
2018-12-10T21:00:56.579Z,6.60
2018-12-10T21:03:24.075Z,6.60
2018-12-10T21:05:57.183Z,6.20
2018-12-10T21:08:24.674Z,6.50
2018-12-10T21:10:52.151Z,6.43
2018-12-10T21:13:19.661Z,6.30
2018-12-10T21:15:47.250Z,6.43
2018-12-10T21:18:14.827Z,6.07
2018-12-10T21:20:42.319Z,6.27
2018-12-10T21:23:09.879Z,6.67
2018-12-10T21:25:37.371Z,6.10
2018-12-10T21:28:04.868Z,6.17
2018-12-10T21:30:32.338Z,6.40
2018-12-10T21:32:59.847Z,6.90
2018-12-10T21:35:27.331Z,7.43
2018-12-10T21:37:54.839Z,7.47
2018-12-10T21:40:22.310Z,8.23
2018-12-10T21:42:49.808Z,7.43
2018-12-10T21:45:17.295Z,7.83
2018-12-10T21:47:44.964Z,8.40
2018-12-10T21:50:12.466Z,7.97
2018-12-10T21:52:39.946Z,8.23
2018-12-10T21:55:07.447Z,8.70
2018-12-10T21:57:34.927Z,9.43
2018-12-10T22:00:02.490Z,9.13
2018-12-10T22:02:30.010Z,9.60
2018-12-10T22:04:57.511Z,10.27
2018-12-10T22:07:24.990Z,11.33
2018-12-10T22:09:52.850Z,10.37
2018-12-10T22:12:20.598Z,9.90
2018-12-10T22:14:48.104Z,10.13
2018-12-10T22:17:15.583Z,9.27
2018-12-10T22:19:43.081Z,9.67
2018-12-10T22:22:10.573Z,9.90
2018-12-10T22:24:38.067Z,9.97
2018-12-10T22:27:05.548Z,9.37
2018-12-10T22:29:33.046Z,9.00
2018-12-10T22:32:00.527Z,9.83
2018-12-10T22:34:28.024Z,9.53
2018-12-10T22:36:55.507Z,8.93
2018-12-10T22:39:23.002Z,9.30
2018-12-10T22:41:50.482Z,10.03
2018-12-10T22:44:17.979Z,9.07
2018-12-10T22:46:45.454Z,9.53
2018-12-10T22:49:12.960Z,9.33
2018-12-10T22:51:40.443Z,8.57
2018-12-10T22:54:07.934Z,9.50
2018-12-10T22:56:35.416Z,8.50
2018-12-10T22:59:02.915Z,8.97
2018-12-10T23:01:30.460Z,9.23
2018-12-10T23:03:58.038Z,9.07
2018-12-10T23:06:25.522Z,9.13
2018-12-10T23:08:53.019Z,9.37
2018-12-10T23:11:20.501Z,8.93
2018-12-10T23:13:48.006Z,8.77
2018-12-10T23:16:15.488Z,8.20
2018-12-10T23:18:43.063Z,8.97
2018-12-10T23:21:10.598Z,8.70
2018-12-10T23:23:38.074Z,8.60
2018-12-10T23:26:05.565Z,8.33
2018-12-10T23:28:33.047Z,8.30
2018-12-10T23:31:00.546Z,8.23
2018-12-10T23:33:28.026Z,8.60
2018-12-10T23:35:55.527Z,8.17
2018-12-10T23:38:23.002Z,8.37
2018-12-10T23:40:50.498Z,8.20
2018-12-10T23:43:24.963Z,8.20
2018-12-10T23:45:52.631Z,8.57
2018-12-10T23:48:20.107Z,8.27
2018-12-10T23:50:47.604Z,8.10
2018-12-10T23:53:15.077Z,8.17
2018-12-10T23:55:42.583Z,7.87
2018-12-10T23:58:10.060Z,8.43
